createdAt,value
2023-07-22T00:00:39.899Z,2.15
2023-07-22T00:03:06.590Z,2.28
2023-07-22T00:05:33.186Z,2.35
2023-07-22T00:07:59.769Z,3.00
2023-07-22T00:10:26.416Z,2.70
2023-07-22T00:12:52.944Z,3.53
2023-07-22T00:15:23.313Z,4.07
2023-07-22T00:17:50.087Z,3.10
2023-07-22T00:20:17.249Z,2.65
2023-07-22T00:22:43.983Z,2.70
2023-07-22T00:25:11.939Z,2.15
2023-07-22T00:27:42.901Z,3.80
2023-07-22T00:30:12.774Z,2.97
2023-07-22T00:32:39.346Z,4.38
2023-07-22T00:35:06.651Z,3.85
2023-07-22T00:37:33.805Z,2.60
2023-07-22T00:40:02.655Z,2.60
2023-07-22T00:42:29.536Z,3.00
2023-07-22T00:44:56.503Z,3.30
2023-07-22T00:47:23.311Z,2.28
2023-07-22T00:49:52.037Z,4.50
2023-07-22T00:52:18.962Z,2.83
2023-07-22T00:54:45.880Z,3.13
2023-07-22T00:57:13.627Z,2.83
2023-07-22T00:59:41.735Z,3.25
2023-07-22T01:02:08.595Z,3.33
2023-07-22T01:04:36.513Z,2.38
2023-07-22T01:07:08.380Z,3.80
2023-07-22T01:09:39.260Z,2.22
2023-07-22T01:12:07.187Z,2.28
2023-07-22T01:14:37.788Z,2.72
2023-07-22T01:17:06.209Z,3.08
2023-07-22T01:19:33.697Z,3.13
2023-07-22T01:22:09.813Z,4.50
2023-07-22T01:24:37.048Z,3.85
2023-07-22T01:27:04.598Z,2.97
2023-07-22T01:29:31.405Z,2.88
2023-07-22T01:31:57.978Z,2.75
2023-07-22T01:34:26.018Z,2.90
2023-07-22T01:36:55.626Z,3.83
2023-07-22T01:39:23.017Z,4.63
2023-07-22T01:41:49.610Z,2.55
2023-07-22T01:44:16.232Z,2.55
2023-07-22T01:46:43.192Z,4.90
2023-07-22T01:49:13.639Z,4.72
2023-07-22T01:51:43.893Z,2.72
2023-07-22T01:54:11.301Z,4.53
2023-07-22T01:56:38.290Z,4.53
2023-07-22T01:59:05.112Z,3.55
2023-07-22T02:01:32.734Z,4.80
2023-07-22T02:03:59.559Z,2.30
2023-07-22T02:06:28.141Z,2.45
2023-07-22T02:08:55.394Z,5.60
2023-07-22T02:11:21.935Z,2.28
2023-07-22T02:13:48.535Z,4.93
2023-07-22T02:16:15.156Z,2.47
2023-07-22T02:18:41.798Z,3.40
2023-07-22T02:21:08.465Z,2.95
2023-07-22T02:23:35.117Z,2.92
2023-07-22T02:26:02.313Z,4.32
2023-07-22T02:28:28.976Z,3.70
2023-07-22T02:30:55.610Z,3.25
2023-07-22T02:33:22.890Z,3.63
2023-07-22T02:35:50.257Z,2.95
2023-07-22T02:38:17.111Z,3.05
2023-07-22T02:40:45.040Z,2.60
2023-07-22T02:43:11.656Z,4.13
2023-07-22T02:45:38.757Z,2.78
2023-07-22T02:48:05.790Z,3.15
2023-07-22T02:50:32.459Z,3.20
2023-07-22T02:52:59.124Z,4.60
2023-07-22T02:55:25.843Z,5.30
2023-07-22T02:57:52.607Z,3.60
2023-07-22T03:00:26.739Z,5.00
2023-07-22T03:03:01.735Z,3.97
2023-07-22T03:05:29.614Z,5.03
2023-07-22T03:07:58.279Z,5.00
2023-07-22T03:10:26.633Z,3.70
2023-07-22T03:12:57.330Z,4.13
2023-07-22T03:15:26.852Z,3.90
2023-07-22T03:17:54.038Z,3.90
2023-07-22T03:20:20.681Z,5.50
2023-07-22T03:22:47.709Z,3.90
2023-07-22T03:25:15.556Z,5.72
2023-07-22T03:27:42.517Z,4.20
2023-07-22T03:30:10.890Z,3.55
2023-07-22T03:32:37.818Z,4.53
2023-07-22T03:35:04.816Z,5.68
2023-07-22T03:37:31.422Z,3.78
2023-07-22T03:39:58.011Z,4.03
2023-07-22T03:42:24.500Z,4.47
2023-07-22T03:44:51.055Z,3.58
2023-07-22T03:47:17.734Z,4.75
2023-07-22T03:49:44.365Z,5.45
2023-07-22T03:52:10.863Z,5.60
2023-07-22T03:54:37.435Z,4.50
2023-07-22T03:57:04.239Z,5.07
2023-07-22T03:59:31.044Z,4.32
2023-07-22T04:01:57.749Z,5.35
2023-07-22T04:04:24.410Z,6.30
2023-07-22T04:06:51.023Z,5.10
2023-07-22T04:09:18.003Z,4.70
2023-07-22T04:11:44.521Z,4.88
2023-07-22T04:14:13.305Z,5.63
2023-07-22T04:16:40.547Z,5.38
2023-07-22T04:19:07.269Z,6.43
2023-07-22T04:21:33.804Z,4.97
2023-07-22T04:24:00.330Z,4.68
2023-07-22T04:26:26.981Z,6.05
2023-07-22T04:28:57.394Z,6.95
2023-07-22T04:31:27.855Z,5.70
2023-07-22T04:33:55.536Z,6.43
2023-07-22T04:36:22.452Z,5.80
2023-07-22T04:38:49.225Z,4.95
2023-07-22T04:41:16.240Z,4.78
2023-07-22T04:43:45.167Z,6.57
2023-07-22T04:46:12.461Z,6.93
2023-07-22T04:48:39.083Z,5.75
2023-07-22T04:51:07.915Z,6.25
2023-07-22T04:53:34.545Z,5.10
2023-07-22T04:56:02.632Z,6.32
2023-07-22T04:58:29.337Z,5.25
2023-07-22T05:00:55.892Z,5.55
2023-07-22T05:03:26.488Z,4.75
2023-07-22T05:05:53.619Z,5.90
2023-07-22T05:08:20.152Z,5.68
2023-07-22T05:10:49.824Z,5.22
2023-07-22T05:13:17.483Z,5.95
2023-07-22T05:15:44.079Z,5.97
2023-07-22T05:18:10.800Z,6.20
2023-07-22T05:20:40.192Z,5.72
2023-07-22T05:23:06.714Z,7.72
2023-07-22T05:25:33.329Z,6.47
2023-07-22T05:27:59.872Z,6.60
2023-07-22T05:30:35.249Z,7.80
2023-07-22T05:33:02.882Z,9.88
2023-07-22T05:35:29.699Z,6.45
2023-07-22T05:37:57.636Z,6.47
2023-07-22T05:40:24.542Z,7.45
2023-07-22T05:42:51.137Z,6.47
2023-07-22T05:45:17.864Z,9.18
2023-07-22T05:47:44.558Z,6.68
2023-07-22T05:50:13.715Z,6.68
2023-07-22T05:52:41.490Z,6.88
2023-07-22T05:55:08.411Z,7.82
2023-07-22T05:57:35.794Z,8.43
2023-07-22T06:00:09.130Z,7.55
2023-07-22T06:02:39.201Z,8.07
2023-07-22T06:05:08.481Z,7.38
2023-07-22T06:07:35.065Z,7.88
2023-07-22T06:10:02.117Z,7.25
2023-07-22T06:12:28.779Z,8.27
2023-07-22T06:14:55.428Z,7.18
2023-07-22T06:17:22.146Z,7.90
2023-07-22T06:19:48.768Z,7.55
2023-07-22T06:22:16.069Z,7.75
2023-07-22T06:24:43.516Z,7.20
2023-07-22T06:27:10.410Z,7.18
2023-07-22T06:29:37.032Z,7.05
2023-07-22T06:32:03.964Z,7.28
2023-07-22T06:34:30.896Z,6.88
2023-07-22T06:36:57.330Z,8.07
2023-07-22T06:39:23.875Z,8.10
2023-07-22T06:41:50.446Z,7.25
2023-07-22T06:44:16.991Z,8.32
2023-07-22T06:46:45.238Z,7.45
2023-07-22T06:49:11.933Z,7.38
2023-07-22T06:51:38.706Z,8.88
2023-07-22T06:54:05.352Z,6.82
2023-07-22T06:56:32.128Z,8.20
2023-07-22T06:58:59.340Z,8.18
2023-07-22T07:01:27.034Z,6.82
2023-07-22T07:03:53.684Z,7.80
2023-07-22T07:06:20.403Z,7.40
2023-07-22T07:08:46.933Z,7.05
2023-07-22T07:11:13.567Z,7.65
2023-07-22T07:13:40.116Z,7.03
2023-07-22T07:16:28.643Z,7.45
2023-07-22T07:18:56.632Z,7.78
2023-07-22T07:21:24.022Z,7.00
2023-07-22T07:23:52.248Z,7.80
2023-07-22T07:26:21.280Z,7.28
2023-07-22T07:28:50.096Z,9.68
2023-07-22T07:31:16.593Z,6.55
2023-07-22T07:33:43.200Z,10.45
2023-07-22T07:36:12.856Z,5.88
2023-07-22T07:38:39.483Z,7.25
2023-07-22T07:41:09.700Z,7.20
2023-07-22T07:43:36.788Z,6.63
2023-07-22T07:46:23.549Z,6.00
2023-07-22T07:48:52.932Z,7.10
2023-07-22T07:51:22.140Z,6.03
2023-07-22T07:53:49.388Z,6.43
2023-07-22T07:56:18.120Z,8.38
2023-07-22T07:58:46.045Z,6.20
2023-07-22T08:01:14.049Z,5.95
2023-07-22T08:03:42.944Z,5.55
2023-07-22T08:06:11.277Z,5.68
2023-07-22T08:08:38.655Z,6.63
2023-07-22T08:11:10.860Z,6.43
2023-07-22T08:13:38.511Z,5.32
2023-07-22T08:16:07.166Z,4.95
2023-07-22T08:18:35.134Z,5.30
2023-07-22T08:21:07.682Z,5.47
2023-07-22T08:23:35.022Z,4.80
2023-07-22T08:26:01.762Z,5.28
2023-07-22T08:28:28.525Z,4.85
2023-07-22T08:30:56.771Z,4.68
2023-07-22T08:33:38.949Z,4.22
2023-07-22T08:36:07.737Z,4.38
2023-07-22T08:38:35.398Z,5.28
2023-07-22T08:41:02.123Z,4.30
2023-07-22T08:43:29.664Z,4.32
2023-07-22T08:46:03.435Z,4.63
2023-07-22T08:48:35.804Z,4.38
2023-07-22T08:51:11.931Z,4.32
2023-07-22T08:53:41.963Z,5.88
2023-07-22T08:56:10.020Z,4.65
2023-07-22T08:58:37.289Z,5.07
2023-07-22T09:01:04.079Z,4.40
2023-07-22T09:03:30.692Z,3.63
2023-07-22T09:05:57.924Z,4.32
2023-07-22T09:08:25.314Z,3.95
2023-07-22T09:10:51.885Z,4.05
2023-07-22T09:13:20.485Z,3.80
2023-07-22T09:15:49.009Z,3.22
2023-07-22T09:18:16.829Z,2.70
2023-07-22T09:20:45.015Z,2.38
2023-07-22T09:23:14.467Z,2.33
2023-07-22T09:25:43.038Z,2.28
2023-07-22T09:28:10.744Z,2.10
2023-07-22T09:30:39.855Z,2.47
2023-07-22T09:33:22.197Z,2.03
2023-07-22T09:35:50.448Z,2.30
2023-07-22T09:38:24.995Z,2.63
2023-07-22T09:40:52.205Z,3.38
2023-07-22T09:43:19.800Z,2.95
2023-07-22T09:45:49.214Z,2.08
2023-07-22T09:48:16.344Z,2.05
2023-07-22T09:50:43.073Z,3.08
2023-07-22T09:53:15.663Z,1.50
2023-07-22T09:55:42.247Z,2.05
2023-07-22T09:58:11.864Z,2.35
2023-07-22T10:00:40.232Z,2.17
2023-07-22T10:03:11.054Z,2.45
2023-07-22T10:05:39.870Z,2.72
2023-07-22T10:08:07.823Z,2.58
2023-07-22T10:10:39.306Z,2.22
2023-07-22T10:13:06.877Z,1.48
2023-07-22T10:15:35.470Z,1.80
2023-07-22T10:18:03.647Z,1.45
2023-07-22T10:20:31.249Z,1.65
2023-07-22T10:23:01.088Z,1.83
2023-07-22T10:25:27.747Z,1.30
2023-07-22T10:27:55.194Z,1.40
2023-07-22T10:30:22.383Z,1.10
2023-07-22T10:32:53.629Z,1.17
2023-07-22T10:35:32.152Z,1.45
2023-07-22T10:38:16.125Z,1.65
2023-07-22T10:40:53.584Z,1.52
2023-07-22T10:43:27.931Z,1.10
2023-07-22T10:45:57.275Z,0.60
2023-07-22T10:48:29.044Z,1.33
2023-07-22T10:51:05.820Z,1.35
2023-07-22T10:53:32.407Z,1.83
2023-07-22T10:56:14.404Z,1.33
2023-07-22T10:58:45.167Z,0.90
2023-07-22T11:01:27.605Z,1.05
2023-07-22T11:04:19.169Z,1.42
2023-07-22T11:06:46.895Z,1.75
2023-07-22T11:09:29.895Z,0.82
2023-07-22T11:12:00.599Z,0.93
2023-07-22T11:14:29.962Z,1.15
2023-07-22T11:17:01.777Z,0.93
2023-07-22T11:19:28.540Z,0.63
2023-07-22T11:21:55.625Z,1.05
2023-07-22T11:24:24.592Z,1.08
2023-07-22T11:26:53.519Z,1.65
2023-07-22T11:29:20.647Z,1.17
2023-07-22T11:31:49.980Z,1.25
2023-07-22T11:34:18.530Z,1.05
2023-07-22T11:36:45.886Z,1.98
2023-07-22T11:39:14.393Z,1.00
2023-07-22T11:41:44.869Z,0.95
2023-07-22T11:44:15.764Z,0.63
2023-07-22T11:46:54.741Z,1.05
2023-07-22T11:49:44.722Z,0.95
2023-07-22T11:52:16.248Z,0.70
2023-07-22T11:54:43.512Z,0.60
2023-07-22T11:57:22.432Z,0.75
2023-07-22T11:59:51.760Z,0.82
2023-07-22T12:02:25.838Z,1.00
2023-07-22T12:05:07.096Z,0.93
2023-07-22T12:07:36.218Z,1.10
2023-07-22T12:10:08.305Z,1.35
2023-07-22T12:12:49.328Z,0.75
2023-07-22T12:15:20.588Z,1.40
2023-07-22T12:17:54.993Z,0.57
2023-07-22T12:20:27.169Z,0.85
2023-07-22T12:22:57.637Z,0.80
2023-07-22T12:25:24.725Z,1.17
2023-07-22T12:27:51.308Z,0.82
2023-07-22T12:30:21.082Z,0.88
2023-07-22T12:35:15.234Z,0.88
2023-07-22T12:37:42.098Z,1.25
2023-07-22T12:40:09.661Z,1.02
2023-07-22T12:42:39.665Z,0.95
2023-07-22T12:45:06.985Z,1.00
2023-07-22T12:47:33.642Z,0.75
2023-07-22T12:50:01.320Z,0.90
2023-07-22T12:52:27.912Z,0.52
2023-07-22T12:54:54.753Z,1.02
2023-07-22T12:57:21.351Z,1.27
2023-07-22T12:59:48.658Z,1.05
2023-07-22T13:02:17.830Z,1.30
2023-07-22T13:04:45.324Z,1.38
2023-07-22T13:07:12.754Z,0.60
2023-07-22T13:09:39.335Z,1.35
2023-07-22T13:12:06.583Z,1.25
2023-07-22T13:14:33.152Z,1.27
2023-07-22T13:16:59.971Z,3.08
2023-07-22T13:19:26.591Z,1.52
2023-07-22T13:21:53.102Z,1.23
2023-07-22T13:24:19.700Z,1.77
2023-07-22T13:26:46.634Z,1.58
2023-07-22T13:29:13.155Z,1.52
2023-07-22T13:31:40.232Z,1.52
2023-07-22T13:34:06.751Z,1.27
2023-07-22T13:36:33.311Z,1.05
2023-07-22T13:39:00.914Z,0.80
2023-07-22T13:41:27.752Z,0.60
2023-07-22T13:43:54.466Z,0.63
2023-07-22T13:46:21.206Z,2.03
2023-07-22T13:48:49.225Z,1.20
2023-07-22T13:51:15.766Z,0.68
2023-07-22T13:53:42.262Z,0.50
2023-07-22T13:56:08.799Z,0.70
2023-07-22T13:58:35.345Z,0.55
2023-07-22T14:01:02.756Z,0.43
2023-07-22T14:03:29.499Z,0.75
2023-07-22T14:05:57.088Z,0.73
2023-07-22T14:08:23.664Z,0.32
2023-07-22T14:10:50.325Z,0.93
2023-07-22T14:13:19.223Z,0.55
2023-07-22T14:15:45.788Z,0.50
2023-07-22T14:18:17.879Z,0.70
2023-07-22T14:20:44.944Z,0.43
2023-07-22T14:23:11.414Z,0.32
2023-07-22T14:25:38.167Z,0.82
2023-07-22T14:28:04.940Z,0.45
2023-07-22T14:30:31.452Z,0.50
2023-07-22T14:32:58.025Z,0.73
2023-07-22T14:35:24.970Z,0.77
2023-07-22T14:37:52.072Z,0.38
2023-07-22T14:40:18.907Z,0.35
2023-07-22T14:42:45.404Z,0.28
2023-07-22T14:45:12.037Z,0.13
2023-07-22T14:47:38.670Z,0.30
2023-07-22T14:50:05.661Z,1.02
2023-07-22T14:52:33.169Z,0.43
2023-07-22T14:54:59.689Z,0.43
2023-07-22T14:57:30.358Z,0.30
2023-07-22T14:59:57.161Z,0.73
2023-07-22T15:02:24.106Z,0.88
2023-07-22T15:04:50.656Z,0.52
2023-07-22T15:07:17.249Z,0.32
2023-07-22T15:09:43.836Z,0.65
2023-07-22T15:12:15.744Z,0.47
2023-07-22T15:14:44.921Z,0.63
2023-07-22T15:17:11.488Z,0.45
2023-07-22T15:19:38.110Z,0.35
2023-07-22T15:22:09.577Z,0.65
2023-07-22T15:24:36.224Z,0.60
2023-07-22T15:27:02.828Z,0.70
2023-07-22T15:29:29.375Z,1.02
2023-07-22T15:31:57.015Z,0.40
2023-07-22T15:34:24.213Z,0.52
2023-07-22T15:36:50.787Z,0.65
2023-07-22T15:39:18.362Z,0.32
2023-07-22T15:41:44.813Z,0.63
2023-07-22T15:44:13.885Z,0.43
2023-07-22T15:46:40.473Z,0.47
2023-07-22T15:49:07.046Z,0.52
2023-07-22T15:51:33.572Z,0.45
2023-07-22T15:54:00.038Z,0.30
2023-07-22T15:56:26.539Z,0.32
2023-07-22T15:58:54.437Z,0.82
2023-07-22T16:01:21.193Z,0.45
2023-07-22T16:03:47.923Z,0.38
2023-07-22T16:06:26.833Z,0.52
2023-07-22T16:08:55.942Z,0.57
2023-07-22T16:11:22.581Z,0.55
2023-07-22T16:13:49.907Z,0.73
2023-07-22T16:16:16.459Z,0.77
2023-07-22T16:18:43.012Z,0.60
2023-07-22T16:21:09.688Z,0.30
2023-07-22T16:23:36.653Z,0.70
2023-07-22T16:26:06.117Z,0.60
2023-07-22T16:28:32.656Z,0.50
2023-07-22T16:30:59.660Z,0.35
2023-07-22T16:33:26.217Z,0.40
2023-07-22T16:35:52.769Z,0.57
2023-07-22T16:38:19.302Z,0.95
2023-07-22T16:40:45.825Z,0.55
2023-07-22T16:43:12.404Z,0.43
2023-07-22T16:45:38.946Z,0.77
2023-07-22T16:48:05.758Z,0.32
2023-07-22T16:50:33.804Z,1.15
2023-07-22T16:53:02.936Z,0.55
2023-07-22T16:55:30.491Z,0.55
2023-07-22T16:57:57.091Z,0.75
2023-07-22T17:00:23.721Z,0.52
2023-07-22T17:02:51.610Z,0.40
2023-07-22T17:05:18.426Z,0.80
2023-07-22T17:07:47.016Z,0.45
2023-07-22T17:10:13.637Z,0.75
2023-07-22T17:12:40.305Z,0.65
2023-07-22T17:15:07.399Z,0.68
2023-07-22T17:17:33.957Z,0.73
2023-07-22T17:20:00.531Z,0.90
2023-07-22T17:22:27.130Z,0.82
2023-07-22T17:24:53.731Z,0.70
2023-07-22T17:27:20.314Z,0.75
2023-07-22T17:29:46.937Z,0.95
2023-07-22T17:32:14.916Z,0.95
2023-07-22T17:34:41.420Z,0.73
2023-07-22T17:37:10.240Z,0.88
2023-07-22T17:39:36.839Z,0.75
2023-07-22T17:42:03.693Z,0.93
2023-07-22T17:44:30.494Z,0.63
2023-07-22T17:46:59.221Z,0.55
2023-07-22T17:49:26.209Z,0.45
2023-07-22T17:51:52.793Z,0.88
2023-07-22T17:54:19.280Z,1.73
2023-07-22T17:56:45.734Z,0.98
2023-07-22T17:59:12.253Z,1.23
2023-07-22T18:01:38.882Z,0.63
2023-07-22T18:04:05.697Z,2.20
2023-07-22T18:06:32.302Z,1.70
2023-07-22T18:08:58.844Z,1.73
2023-07-22T18:11:25.392Z,1.05
2023-07-22T18:13:54.418Z,1.02
2023-07-22T18:16:21.701Z,0.82
2023-07-22T18:18:48.581Z,1.17
2023-07-22T18:21:17.311Z,0.82
2023-07-22T18:23:43.860Z,0.75
2023-07-22T18:26:10.487Z,1.75
2023-07-22T18:28:37.136Z,1.35
2023-07-22T18:31:04.104Z,1.00
2023-07-22T18:33:30.825Z,0.95
2023-07-22T18:35:58.870Z,1.10
2023-07-22T18:38:25.660Z,1.05
2023-07-22T18:40:52.270Z,1.02
2023-07-22T18:43:19.694Z,0.75
2023-07-22T18:45:47.669Z,1.83
2023-07-22T18:48:14.219Z,1.67
2023-07-22T18:50:40.802Z,1.27
2023-07-22T18:53:07.349Z,1.52
2023-07-22T18:55:36.308Z,1.17
2023-07-22T18:58:02.809Z,1.17
2023-07-22T19:00:29.471Z,1.20
2023-07-22T19:02:58.444Z,1.35
2023-07-22T19:05:25.253Z,1.05
2023-07-22T19:07:53.519Z,1.55
2023-07-22T19:10:20.035Z,1.45
2023-07-22T19:12:46.638Z,1.35
2023-07-22T19:15:13.237Z,1.98
2023-07-22T19:17:40.133Z,2.70
2023-07-22T19:20:07.054Z,0.95
2023-07-22T19:22:33.710Z,0.88
2023-07-22T19:25:00.302Z,1.58
2023-07-22T19:27:26.961Z,1.23
2023-07-22T19:29:54.956Z,1.15
2023-07-22T19:32:22.885Z,1.08
2023-07-22T19:34:49.496Z,1.02
2023-07-22T19:37:16.253Z,0.93
2023-07-22T19:39:42.787Z,1.23
2023-07-22T19:42:09.808Z,1.00
2023-07-22T19:44:36.476Z,1.80
2023-07-22T19:47:03.927Z,1.92
2023-07-22T19:49:30.488Z,1.30
2023-07-22T19:51:57.066Z,1.25
2023-07-22T19:54:27.220Z,1.98
2023-07-22T19:56:54.956Z,0.95
2023-07-22T19:59:22.157Z,1.45
2023-07-22T20:01:48.880Z,1.35
2023-07-22T20:04:15.531Z,1.90
2023-07-22T20:06:42.082Z,1.00
2023-07-22T20:09:10.056Z,2.05
2023-07-22T20:11:36.739Z,0.95
2023-07-22T20:14:05.766Z,1.50
2023-07-22T20:16:33.220Z,1.40
2023-07-22T20:18:59.768Z,0.93
2023-07-22T20:21:26.633Z,1.50
2023-07-22T20:23:53.414Z,0.68
2023-07-22T20:26:19.937Z,0.70
2023-07-22T20:28:46.785Z,0.90
2023-07-22T20:31:13.903Z,1.55
2023-07-22T20:33:40.435Z,0.60
2023-07-22T20:36:07.834Z,0.73
2023-07-22T20:38:35.500Z,1.02
2023-07-22T20:41:06.328Z,1.00
2023-07-22T20:43:33.889Z,1.25
2023-07-22T20:46:05.477Z,0.98
2023-07-22T20:48:33.031Z,2.70
2023-07-22T20:50:59.573Z,1.02
2023-07-22T20:53:31.110Z,1.15
2023-07-22T20:56:01.746Z,0.68
2023-07-22T20:58:29.682Z,0.55
2023-07-22T21:01:00.815Z,0.77
2023-07-22T21:03:27.884Z,0.77
2023-07-22T21:05:58.828Z,1.00
2023-07-22T21:08:26.106Z,1.15
2023-07-22T21:10:52.770Z,2.17
2023-07-22T21:13:20.128Z,1.83
2023-07-22T21:15:49.685Z,1.10
2023-07-22T21:18:16.703Z,1.00
2023-07-22T21:20:44.284Z,0.63
2023-07-22T21:23:10.845Z,1.08
2023-07-22T21:25:37.505Z,1.17
2023-07-22T21:28:04.253Z,1.38
2023-07-22T21:30:30.963Z,1.00
2023-07-22T21:32:57.652Z,1.77
2023-07-22T21:35:24.240Z,1.60
2023-07-22T21:37:50.857Z,1.50
2023-07-22T21:40:17.540Z,1.60
2023-07-22T21:42:44.881Z,2.00
2023-07-22T21:45:11.864Z,1.42
2023-07-22T21:47:38.586Z,1.27
2023-07-22T21:50:05.810Z,3.08
2023-07-22T21:52:32.353Z,1.58
2023-07-22T21:54:58.996Z,1.02
2023-07-22T21:57:25.578Z,2.83
2023-07-22T21:59:52.134Z,1.67
2023-07-22T22:02:19.456Z,1.98
2023-07-22T22:04:46.082Z,1.75
2023-07-22T22:07:12.629Z,1.50
2023-07-22T22:09:39.567Z,1.70
2023-07-22T22:12:06.565Z,2.17
2023-07-22T22:14:33.219Z,2.05
2023-07-22T22:17:00.047Z,2.03
2023-07-22T22:19:27.245Z,1.67
2023-07-22T22:21:53.850Z,1.92
2023-07-22T22:24:20.412Z,2.88
2023-07-22T22:26:46.992Z,2.10
2023-07-22T22:29:14.080Z,1.98
2023-07-22T22:31:40.638Z,1.73
2023-07-22T22:34:07.311Z,1.92
2023-07-22T22:36:33.871Z,2.40
2023-07-22T22:39:00.444Z,2.00
2023-07-22T22:41:27.215Z,2.60
2023-07-22T22:43:54.022Z,2.47
2023-07-22T22:46:20.679Z,1.70
2023-07-22T22:48:47.634Z,2.22
2023-07-22T22:51:14.158Z,2.08
2023-07-22T22:53:40.692Z,1.77
2023-07-22T22:56:07.359Z,2.03
2023-07-22T22:58:33.939Z,1.95
2023-07-22T23:01:00.463Z,1.77
2023-07-22T23:03:27.016Z,2.05
2023-07-22T23:05:53.549Z,1.75
2023-07-22T23:08:20.037Z,2.38
2023-07-22T23:10:47.913Z,1.95
2023-07-22T23:13:15.219Z,2.25
2023-07-22T23:15:41.923Z,1.90
2023-07-22T23:18:10.609Z,2.17
2023-07-22T23:20:37.099Z,2.10
2023-07-22T23:23:03.678Z,1.95
2023-07-22T23:25:30.232Z,2.13
2023-07-22T23:27:56.943Z,2.35
2023-07-22T23:30:24.502Z,1.65
2023-07-22T23:32:52.253Z,1.80
2023-07-22T23:35:18.927Z,2.78
2023-07-22T23:37:45.603Z,2.53
2023-07-22T23:40:12.709Z,2.38
2023-07-22T23:42:39.290Z,1.88
2023-07-22T23:45:06.319Z,1.77
2023-07-22T23:47:33.589Z,1.50
2023-07-22T23:50:01.328Z,2.38
2023-07-22T23:52:27.964Z,3.67
2023-07-22T23:54:55.617Z,3.15
2023-07-22T23:57:22.155Z,2.38
2023-07-22T23:59:48.876Z,1.92
